Time;durP1;ratioP1;P1;durP2;ratioP2;P2;SDS_P1;SDS_P2;PMS_P1;PMS_P2;Temp;Humidity;BMP_temperature;BMP_pressure;BME280_temperature;BME280_humidity;BME280_pressure;Samples;Min_cycle;Max_cycle;Signal;HPM_P1;HPM_P2
2023/01/21 00:02:22;;;;;;;53.88;34.58;;;;;;;2.17;84.31;97130.56;10294206;28;20030;-49
2023/01/21 00:07:21;;;;;;;41.15;26.05;;;;;;;1.67;86.17;97107.25;10279513;28;20034;-47
2023/01/21 00:12:20;;;;;;;35.53;23.20;;;;;;;1.87;85.18;97140.09;10292250;28;20088;-49
2023/01/21 00:17:19;;;;;;;44.15;24.80;;;;;;;1.84;85.14;97135.78;10292569;28;20040;-47
2023/01/21 00:22:18;;;;;;;44.47;28.20;;;;;;;1.85;84.75;97137.50;10293387;28;20137;-47
2023/01/21 00:27:17;;;;;;;65.05;36.60;;;;;;;1.79;85.38;97146.75;10288834;28;20121;-47
2023/01/21 00:32:16;;;;;;;39.38;23.33;;;;;;;1.55;84.95;97086.50;10293442;28;20145;-48
2023/01/21 00:37:15;;;;;;;38.50;22.05;;;;;;;1.81;85.05;97109.25;10292147;28;20095;-47
2023/01/21 00:42:14;;;;;;;35.30;21.48;;;;;;;1.79;84.79;97119.47;10288787;28;20032;-48
2023/01/21 00:47:13;;;;;;;43.33;23.88;;;;;;;1.84;85.25;97122.13;10291136;28;20034;-49
2023/01/21 00:52:12;;;;;;;52.05;29.52;;;;;;;1.73;85.42;97122.72;10290138;28;20053;-47
2023/01/21 00:57:12;;;;;;;40.92;22.92;;;;;;;1.78;85.50;97120.28;10291161;28;20038;-47
2023/01/21 01:02:11;;;;;;;37.58;22.00;;;;;;;1.78;85.84;97115.16;10290455;28;20132;-47
2023/01/21 01:07:11;;;;;;;32.55;17.63;;;;;;;1.70;85.48;97107.31;10289224;28;20058;-50
2023/01/21 01:12:09;;;;;;;19.73;11.23;;;;;;;1.69;85.63;97115.84;10279980;28;20133;-49
2023/01/21 01:17:08;;;;;;;12.27;8.15;;;;;;;0.86;88.31;97131.63;10291744;28;20106;-49
2023/01/21 01:22:07;;;;;;;13.02;8.10;;;;;;;0.95;87.69;97138.69;10290547;28;20026;-48
2023/01/21 01:27:06;;;;;;;19.38;11.15;;;;;;;0.02;87.55;96984.72;10290368;28;20072;-49
2023/01/21 01:32:05;;;;;;;23.10;12.95;;;;;;;1.02;87.41;97121.84;10290220;28;20124;-47
2023/01/21 01:37:04;;;;;;;;;;;;;;;0.96;87.58;97109.75;10289973;28;20045;-48
2023/01/21 01:42:03;;;;;;;20.58;12.35;;;;;;;0.99;87.57;97112.41;10290547;28;20343;-46
2023/01/21 01:47:03;;;;;;;27.10;14.55;;;;;;;0.95;87.55;97118.25;10290197;28;20488;-49
2023/01/21 01:52:05;;;;;;;27.85;15.70;;;;;;;1.01;87.38;97112.44;10287231;28;20864;-48
2023/01/21 01:57:07;;;;;;;31.17;18.13;;;;;;;1.06;87.37;97115.97;10288405;28;20845;-48
2023/01/21 02:02:09;;;;;;;29.50;17.02;;;;;;;1.07;87.27;97098.13;10290398;28;20060;-48
2023/01/21 02:07:09;;;;;;;32.70;17.63;;;;;;;0.93;88.22;97119.03;10289701;28;20485;-47
2023/01/21 02:12:08;;;;;;;36.28;20.67;;;;;;;1.03;87.63;97105.69;10289105;28;20493;-49
2023/01/21 02:17:10;;;;;;;;;;;;;;;1.11;87.63;97083.75;10290496;28;20064;-48
2023/01/21 02:22:38;;;;;;;31.77;17.95;;;;;;;1.13;87.49;97097.44;10289721;28;19957;-47
2023/01/21 02:27:37;;;;;;;38.33;21.75;;;;;;;1.05;88.01;97092.09;10287435;28;20061;-50
2023/01/21 02:32:54;;;;;;;37.92;22.33;;;;;;;1.12;87.63;97090.56;10287060;28;20021;-47
2023/01/21 02:38:10;;;;;;;40.65;24.27;;;;;;;1.13;87.64;97079.56;10284691;28;20061;-49
2023/01/21 02:43:34;;;;;;;47.22;25.38;;;;;;;1.16;87.88;97066.84;10287596;28;20069;-48
2023/01/21 02:48:42;;;;;;;48.67;25.65;;;;;;;1.11;87.72;97079.50;10287791;28;20061;-47
2023/01/21 02:53:40;;;;;;;44.17;25.20;;;;;;;1.13;87.39;97071.88;10288330;28;20053;-47
2023/01/21 02:58:45;;;;;;;40.05;22.27;;;;;;;1.15;87.36;97075.31;10288297;28;20113;-47
2023/01/21 03:03:59;;;;;;;42.33;23.55;;;;;;;1.16;87.36;97055.75;10289027;28;20260;-48
2023/01/21 03:09:04;;;;;;;64.68;38.80;;;;;;;1.10;87.81;97057.31;10296459;28;20493;-49
2023/01/21 03:20:11;;;;;;;47.45;28.00;;;;;;;1.24;87.69;97038.91;10293504;28;20086;-49
2023/01/21 03:25:12;;;;;;;40.88;23.30;;;;;;;1.10;87.76;97016.44;10294730;28;20065;-48
2023/01/21 03:30:16;;;;;;;44.35;24.02;;;;;;;1.11;87.87;97014.75;10296211;28;20080;-49
2023/01/21 03:35:22;;;;;;;40.03;24.15;;;;;;;1.09;88.28;97024.06;10293711;28;20062;-47
2023/01/21 03:40:29;;;;;;;39.10;22.98;;;;;;;1.05;87.90;97010.34;10292959;28;20065;-48
2023/01/21 03:45:42;;;;;;;31.40;19.10;;;;;;;0.77;87.92;97006.25;10292725;28;20469;-49
2023/01/21 03:50:50;;;;;;;30.95;17.40;;;;;;;0.73;87.80;97024.00;10292692;28;20892;-47
2023/01/21 03:55:50;;;;;;;23.25;12.43;;;;;;;0.48;87.84;97011.47;10292546;28;20065;-50
2023/01/21 04:00:49;;;;;;;24.77;11.57;;;;;;;0.78;87.25;97035.19;10289391;28;20139;-48
2023/01/21 04:05:48;;;;;;;36.30;21.23;;;;;;;0.71;87.10;97046.97;10293143;28;20429;-49
2023/01/21 04:10:47;;;;;;;32.30;16.23;;;;;;;0.68;87.40;97044.31;10292181;28;20049;-47
2023/01/21 04:15:46;;;;;;;39.55;16.13;;;;;;;0.59;87.48;97032.19;10291841;28;20112;-50
2023/01/21 04:20:45;;;;;;;59.80;24.33;;;;;;;0.52;87.79;97025.19;10292498;28;20132;-48
2023/01/21 04:25:47;;;;;;;48.05;18.63;;;;;;;0.52;87.67;97024.31;10291111;28;20073;-49
2023/01/21 04:30:46;;;;;;;41.15;19.50;;;;;;;0.51;88.17;97043.03;10293475;28;20081;-49
2023/01/21 04:35:45;;;;;;;43.35;21.50;;;;;;;0.56;88.34;97021.03;10291584;28;20061;-49
2023/01/21 04:40:44;;;;;;;44.22;20.35;;;;;;;0.63;88.84;97038.22;10293325;28;20041;-50
2023/01/21 04:45:43;;;;;;;41.42;20.85;;;;;;;0.72;88.62;97010.38;10290220;28;20146;-47
2023/01/21 04:50:42;;;;;;;;;;;;;;;0.74;88.50;97016.41;10292203;28;20504;-49
2023/01/21 04:55:41;;;;;;;44.47;23.52;;;;;;;0.56;88.50;96985.28;10292616;28;19918;-47
2023/01/21 05:00:40;;;;;;;47.38;23.58;;;;;;;0.23;88.89;96951.28;10292123;28;20145;-48
2023/01/21 05:05:39;;;;;;;39.35;21.10;;;;;;;0.88;88.54;97029.53;10291793;28;20113;-47
2023/01/21 05:10:38;;;;;;;30.75;14.27;;;;;;;0.72;88.32;97033.38;10290519;28;20021;-50
2023/01/21 05:15:37;;;;;;;34.10;18.08;;;;;;;0.76;88.21;97067.53;10291924;28;20052;-49
2023/01/21 05:20:36;;;;;;;30.23;14.95;;;;;;;0.76;87.82;97060.72;10291123;28;20117;-50
2023/01/21 05:25:35;;;;;;;25.55;12.93;;;;;;;0.59;87.77;97044.06;10266435;28;20061;-49
2023/01/21 05:30:33;;;;;;;32.72;16.73;;;;;;;0.66;87.92;97040.84;10301958;28;20049;-48
2023/01/21 05:35:34;;;;;;;54.45;28.42;;;;;;;0.54;88.42;97059.28;10289455;28;20108;-48
2023/01/21 05:40:32;;;;;;;62.90;25.35;;;;;;;0.46;88.50;97061.63;10291005;28;20061;-48
2023/01/21 05:45:31;;;;;;;59.78;27.42;;;;;;;0.29;89.08;97067.97;10286490;28;20042;-50
2023/01/21 05:50:31;;;;;;;;;;;;;;;0.16;89.99;97065.88;10233308;28;20465;-47
2023/01/21 05:55:30;;;;;;;206.13;21.88;;;;;;;0.15;90.27;97071.81;10288766;28;19960;-50
2023/01/21 06:00:29;;;;;;;87.22;22.20;;;;;;;0.13;90.30;97078.56;10300973;28;20113;-50
2023/01/21 06:05:28;;;;;;;;;;;;;;;0.17;90.67;97088.91;10280044;28;20116;-48
2023/01/21 06:10:27;;;;;;;93.93;32.90;;;;;;;0.42;90.40;97110.00;10307097;28;19945;-48
2023/01/21 06:15:26;;;;;;;76.10;32.08;;;;;;;0.56;90.10;97097.63;10285014;28;20026;-49
2023/01/21 06:20:28;;;;;;;;;;;;;;;0.51;90.71;97101.72;10285542;28;20471;-48
2023/01/21 06:25:27;;;;;;;72.65;33.70;;;;;;;0.48;90.30;97075.31;10287173;28;20012;-48
2023/01/21 06:30:26;;;;;;;;;;;;;;;0.70;90.54;97121.84;10287527;28;20092;-47
2023/01/21 06:35:25;;;;;;;209.70;44.15;;;;;;;0.88;89.24;97122.34;10287559;28;19913;-49
2023/01/21 06:40:24;;;;;;;;;;;;;;;0.97;89.28;97121.72;10285003;28;20073;-50
2023/01/21 06:45:23;;;;;;;146.38;45.17;;;;;;;0.93;88.90;97106.28;10285400;28;20017;-49
2023/01/21 06:50:22;;;;;;;101.80;36.15;;;;;;;1.11;88.91;97128.06;10285140;28;20034;-47
2023/01/21 06:55:21;;;;;;;144.20;48.67;;;;;;;1.15;88.83;97136.63;10284584;28;20530;-48
2023/01/21 07:00:20;;;;;;;156.73;62.42;;;;;;;1.28;88.33;97148.06;10287023;28;20030;-48
2023/01/21 07:05:19;;;;;;;134.63;60.05;;;;;;;0.76;88.46;97068.38;10285662;28;20129;-47
2023/01/21 07:10:18;;;;;;;196.55;84.63;;;;;;;0.92;89.44;97132.63;10286932;28;20026;-48
2023/01/21 07:15:17;;;;;;;240.20;87.70;;;;;;;0.93;89.68;97132.69;10286579;28;20041;-47
2023/01/21 07:20:16;;;;;;;144.05;62.85;;;;;;;0.99;89.37;97142.19;10281689;28;20061;-50
2023/01/21 07:25:15;;;;;;;;;;;;;;;1.04;89.79;97132.97;10284546;28;20540;-57
2023/01/21 07:30:19;;;;;;;81.90;38.55;;;;;;;1.37;88.60;97116.75;10285163;28;19921;-57
2023/01/21 07:35:18;;;;;;;110.90;55.55;;;;;;;1.46;88.75;97124.66;10280808;28;20568;-57
2023/01/21 07:40:17;;;;;;;67.60;37.15;;;;;;;1.62;88.30;97137.00;10279332;28;20910;-57
2023/01/21 07:45:16;;;;;;;81.85;41.78;;;;;;;1.75;87.43;97122.78;10285570;28;20037;-57
2023/01/21 07:50:15;;;;;;;82.22;43.50;;;;;;;1.77;87.65;97100.66;10277105;28;20177;-57
2023/01/21 07:55:14;;;;;;;73.53;40.78;;;;;;;1.75;88.24;97115.97;10286387;28;20112;-57
2023/01/21 08:00:14;;;;;;;50.70;28.75;;;;;;;1.69;88.28;97118.41;10285137;28;20119;-57
2023/01/21 08:05:13;;;;;;;60.22;25.95;;;;;;;1.94;88.54;97131.75;10289165;28;20129;-57
2023/01/21 08:10:13;;;;;;;54.88;27.58;;;;;;;1.98;87.39;97128.44;10284843;28;20041;-57
2023/01/21 08:15:12;;;;;;;44.47;23.55;;;;;;;1.96;86.86;97125.81;10289408;28;20799;-57
2023/01/21 08:20:12;;;;;;;248.52;28.25;;;;;;;1.99;85.41;97106.25;10286050;28;20884;-56
2023/01/21 08:25:10;;;;;;;;;;;;;;;2.07;86.96;97123.53;10290372;28;20138;-56
2023/01/21 08:30:10;;;;;;;41.47;21.25;;;;;;;2.26;87.00;97096.63;10281531;28;20004;-56
2023/01/21 08:35:09;;;;;;;41.88;21.58;;;;;;;2.71;86.41;97141.91;10286528;28;20065;-56
2023/01/21 08:40:08;;;;;;;44.67;20.08;;;;;;;2.90;83.33;97114.09;10291500;28;20133;-56
2023/01/21 08:45:08;;;;;;;34.55;18.00;;;;;;;2.54;83.23;97120.25;10287189;28;20069;-51
2023/01/21 08:50:08;;;;;;;28.77;16.58;;;;;;;2.56;83.12;97088.69;10288881;28;20058;-49
2023/01/21 08:55:07;;;;;;;38.33;21.08;;;;;;;2.84;83.92;97093.47;10289916;28;20107;-50
2023/01/21 09:00:07;;;;;;;40.92;23.77;;;;;;;2.91;84.06;97075.69;10284378;28;20109;-49
2023/01/21 09:05:06;;;;;;;34.05;19.63;;;;;;;3.22;84.08;97107.00;10286427;28;20172;-49
2023/01/21 09:10:06;;;;;;;23.40;13.45;;;;;;;3.51;82.40;97094.63;10286569;28;20072;-49
2023/01/21 09:15:05;;;;;;;18.73;10.50;;;;;;;3.55;81.08;97078.47;10289582;28;20064;-48
2023/01/21 09:20:05;;;;;;;79.28;38.75;;;;;;;3.59;82.14;97074.25;10291344;28;20065;-49
2023/01/21 09:25:09;;;;;;;;;;;;;;;3.75;81.37;97099.31;10282970;28;20071;-50
2023/01/21 09:30:08;;;;;;;57.85;27.92;;;;;;;3.82;81.36;97080.59;10319402;28;19968;-51
2023/01/21 09:35:07;;;;;;;41.58;25.17;;;;;;;3.82;81.78;97060.06;10289496;28;20076;-51
2023/01/21 09:40:09;;;;;;;;;;;;;;;4.30;82.15;97088.94;10301480;28;20076;-51
2023/01/21 09:45:14;;;;;;;36.45;20.55;;;;;;;4.68;81.48;97062.84;10286937;28;19956;-48
2023/01/21 09:50:20;;;;;;;34.10;20.65;;;;;;;4.91;80.74;97043.38;10287460;28;20104;-48
2023/01/21 09:55:39;;;;;;;32.08;19.00;;;;;;;4.87;79.02;96992.75;10286560;28;20459;-50
2023/01/21 10:00:45;;;;;;;31.98;19.88;;;;;;;5.59;77.72;97043.13;10289473;28;20069;-51
2023/01/21 10:06:04;;;;;;;32.80;19.88;;;;;;;5.79;77.23;97025.22;10289355;28;20069;-52
2023/01/21 10:11:35;;;;;;;24.45;15.88;;;;;;;6.09;76.86;97035.69;10250434;28;20073;-49
2023/01/21 10:16:40;;;;;;;30.75;18.17;;;;;;;6.28;75.60;97020.31;10287819;28;20116;-50
2023/01/21 10:21:56;;;;;;;13.18;9.57;;;;;;;6.98;75.00;97009.31;10291462;28;20069;-52
2023/01/21 10:26:56;;;;;;;11.77;7.50;;;;;;;7.39;72.76;96990.44;10291738;28;20065;-52
2023/01/21 10:32:00;;;;;;;4.80;3.50;;;;;;;7.69;71.01;96994.72;10278004;28;20108;-49
2023/01/21 10:37:05;;;;;;;9.75;6.13;;;;;;;7.59;73.18;96993.91;10281433;28;20062;-49
2023/01/21 10:42:16;;;;;;;10.82;6.80;;;;;;;7.73;73.41;97005.91;10319711;28;20069;-52
2023/01/21 10:47:54;;;;;;;12.35;8.32;;;;;;;7.55;73.78;97010.25;10286593;28;20098;-50
2023/01/21 10:53:18;;;;;;;15.65;10.10;;;;;;;7.66;74.03;96997.28;10309135;28;20080;-51
2023/01/21 10:58:19;;;;;;;13.95;8.73;;;;;;;7.06;73.38;96880.38;10287635;28;20061;-51
2023/01/21 11:03:28;;;;;;;9.25;5.10;;;;;;;7.93;67.07;96995.53;10297526;28;20120;-50
2023/01/21 11:08:28;;;;;;;7.72;4.95;;;;;;;7.98;69.03;97014.47;10285087;28;20077;-50
2023/01/21 11:13:26;;;;;;;;;;;;;;;7.85;67.83;96998.16;10291929;28;20775;-50
2023/01/21 11:18:39;;;;;;;7.00;4.30;;;;;;;7.76;67.51;96995.59;10351363;28;20675;-50
2023/01/21 11:23:39;;;;;;;7.20;5.00;;;;;;;7.80;68.62;97000.75;10280104;28;20873;-47
2023/01/21 11:28:38;;;;;;;7.35;3.92;;;;;;;7.72;66.95;96968.03;10292820;28;20126;-51
2023/01/21 11:33:38;;;;;;;8.20;5.15;;;;;;;7.17;68.89;96969.81;10289365;28;20061;-49
2023/01/21 11:38:37;;;;;;;9.35;5.95;;;;;;;7.13;71.00;96996.47;10296592;28;20073;-50
2023/01/21 11:43:49;;;;;;;10.75;6.68;;;;;;;7.24;71.32;96991.28;10284779;28;20156;-50
2023/01/21 11:48:48;;;;;;;10.13;5.55;;;;;;;7.35;71.16;97004.19;10296500;28;20077;-50
2023/01/21 11:53:47;;;;;;;9.85;5.88;;;;;;;7.54;68.91;96979.25;10291740;28;20703;-50
2023/01/21 11:58:46;;;;;;;8.70;5.88;;;;;;;7.23;69.64;96974.94;10298737;28;20393;-50
2023/01/21 12:03:51;;;;;;;14.15;7.82;;;;;;;7.17;71.35;97003.34;10304104;28;20108;-51
2023/01/21 12:08:54;;;;;;;8.52;5.72;;;;;;;6.95;71.11;96922.50;10293009;28;20069;-51
2023/01/21 12:14:10;;;;;;;9.85;5.75;;;;;;;7.27;72.52;96999.03;10317411;28;20046;-51
2023/01/21 12:19:15;;;;;;;9.80;6.28;;;;;;;7.40;71.95;97007.66;10292818;28;20076;-49
2023/01/21 12:24:54;;;;;;;10.52;6.43;;;;;;;7.55;71.30;97024.88;10292271;28;20076;-52
2023/01/21 12:30:00;;;;;;;14.85;10.60;;;;;;;7.81;71.54;97020.53;10288297;28;20085;-50
2023/01/21 12:35:38;;;;;;;11.93;6.90;;;;;;;8.01;70.29;97028.25;10284427;28;20088;-49
2023/01/21 12:41:01;;;;;;;14.25;7.88;;;;;;;8.29;69.04;97034.19;10269343;28;20129;-52
2023/01/21 12:46:09;;;;;;;8.77;6.60;;;;;;;8.14;69.54;97047.16;10281170;28;20069;-49
2023/01/21 12:51:13;;;;;;;9.48;6.97;;;;;;;8.03;70.37;97054.91;10299234;28;20471;-49
2023/01/21 12:56:33;;;;;;;9.65;6.88;;;;;;;7.83;71.27;97054.13;10290316;28;20072;-49
2023/01/21 13:01:51;;;;;;;8.98;6.78;;;;;;;7.95;70.72;97028.25;10319892;28;20069;-49
2023/01/21 13:06:54;;;;;;;14.05;9.00;;;;;;;7.80;72.33;97039.47;10293276;28;20061;-51
2023/01/21 13:12:02;;;;;;;13.90;9.63;;;;;;;7.40;71.70;97056.69;10303269;28;20068;-51
2023/01/21 13:17:10;;;;;;;11.88;8.32;;;;;;;7.56;72.15;97081.66;10289583;28;20065;-52
2023/01/21 13:22:17;;;;;;;12.07;8.05;;;;;;;7.40;72.79;97077.34;10304147;28;20487;-51
2023/01/21 13:27:43;;;;;;;12.73;8.65;;;;;;;7.41;72.45;97086.84;10286820;28;20092;-49
2023/01/21 13:32:45;;;;;;;13.02;9.77;;;;;;;7.23;73.11;97093.66;10257151;28;20073;-50
2023/01/21 13:38:22;;;;;;;12.13;8.18;;;;;;;7.25;72.43;97115.16;10289154;28;20758;-50
2023/01/21 13:43:36;;;;;;;12.82;8.25;;;;;;;7.57;71.18;97121.25;10282364;28;20571;-49
2023/01/21 13:48:49;;;;;;;21.10;14.50;;;;;;;7.65;71.06;97098.88;10280703;28;20140;-51
2023/01/21 13:54:20;;;;;;;12.55;8.68;;;;;;;7.80;69.89;97116.09;10279169;28;20116;-51
2023/01/21 13:59:54;;;;;;;;;;;;;;;7.88;70.33;97125.56;10293756;28;20080;-50
2023/01/21 14:05:05;;;;;;;88.65;47.30;;;;;;;7.68;69.94;97147.06;10284137;28;19960;-50
2023/01/21 14:10:14;;;;;;;16.92;11.90;;;;;;;7.50;70.53;97148.78;10298724;28;20539;-49
2023/01/21 14:15:13;;;;;;;17.37;11.33;;;;;;;7.03;73.06;97163.28;10307979;28;20057;-51
2023/01/21 14:20:19;;;;;;;14.55;9.82;;;;;;;7.19;72.36;97164.19;10287865;28;20112;-51
2023/01/21 14:25:30;;;;;;;15.20;10.75;;;;;;;7.22;72.40;97179.69;10304854;28;20551;-52
2023/01/21 14:30:29;;;;;;;78.63;48.38;;;;;;;7.11;72.40;97173.63;10287821;28;20099;-49
2023/01/21 14:35:33;;;;;;;16.73;11.10;;;;;;;7.01;73.01;97179.59;10289485;28;20404;-53
2023/01/21 14:40:34;;;;;;;19.38;13.27;;;;;;;7.14;72.96;97183.94;10285488;28;20080;-50
2023/01/21 14:45:48;;;;;;;18.27;11.77;;;;;;;7.08;73.69;97202.00;10297468;28;20068;-50
2023/01/21 14:50:51;;;;;;;13.90;9.50;;;;;;;6.73;75.46;97215.59;10332805;28;20535;-49
2023/01/21 14:56:18;;;;;;;19.58;14.15;;;;;;;6.65;75.40;97214.66;10301220;28;20057;-50
2023/01/21 15:01:39;;;;;;;31.85;19.88;;;;;;;6.68;76.05;97214.69;10317742;28;20064;-51
2023/01/21 15:06:39;;;;;;;25.15;17.92;;;;;;;6.77;75.29;97212.19;10309959;28;20057;-50
2023/01/21 15:11:39;;;;;;;41.65;27.45;;;;;;;6.88;74.87;97219.94;10292658;28;20057;-50
2023/01/21 15:16:43;;;;;;;34.53;20.90;;;;;;;6.79;74.47;97215.59;10293455;28;20088;-50
2023/01/21 15:21:58;;;;;;;30.25;20.25;;;;;;;6.81;74.41;97206.16;10281471;28;20072;-51
2023/01/21 15:27:24;;;;;;;54.22;31.88;;;;;;;6.91;73.93;97211.34;10291694;28;20054;-51
2023/01/21 15:32:37;;;;;;;47.70;31.05;;;;;;;6.92;74.21;97242.31;10293100;28;20084;-48
2023/01/21 15:37:38;;;;;;;65.55;37.08;;;;;;;6.67;74.63;97235.31;10293905;28;20058;-51
2023/01/21 15:42:58;;;;;;;40.13;25.45;;;;;;;6.73;75.11;97246.53;10291107;28;20069;-49
2023/01/21 15:48:15;;;;;;;38.47;25.90;;;;;;;6.63;75.04;97238.72;10325065;28;20062;-49
2023/01/21 15:53:32;;;;;;;47.13;28.58;;;;;;;6.68;75.66;97255.94;10293345;28;20080;-50
2023/01/21 15:59:14;;;;;;;42.95;27.83;;;;;;;6.64;75.65;97269.66;10291638;28;20060;-51
2023/01/21 16:04:40;;;;;;;27.42;17.48;;;;;;;6.60;75.35;97260.19;10251980;28;20061;-51
2023/01/21 16:10:05;;;;;;;41.65;25.83;;;;;;;6.45;76.35;97267.81;10287765;28;20053;-48
2023/01/21 16:15:12;;;;;;;55.85;34.30;;;;;;;6.40;76.58;97267.78;10291855;28;20122;-49
2023/01/21 16:20:12;;;;;;;58.38;37.40;;;;;;;6.03;76.29;97207.38;10283477;28;20065;-50
2023/01/21 16:25:18;;;;;;;31.77;23.83;;;;;;;6.15;75.87;97256.41;10292426;28;20450;-52
2023/01/21 16:30:25;;;;;;;48.17;32.53;;;;;;;6.33;75.58;97282.34;10272520;28;20136;-50
2023/01/21 16:35:24;;;;;;;44.15;29.35;;;;;;;6.31;75.57;97298.63;10261336;28;20069;-52
2023/01/21 16:40:23;;;;;;;40.38;26.08;;;;;;;6.33;75.15;97297.78;10285712;28;20077;-52
2023/01/21 16:45:24;;;;;;;40.15;26.00;;;;;;;6.19;74.98;97291.66;10266295;28;20121;-52
2023/01/21 16:50:26;;;;;;;43.97;29.63;;;;;;;6.20;75.93;97301.09;10271627;28;20068;-50
2023/01/21 16:55:29;;;;;;;48.67;29.70;;;;;;;6.22;75.44;97304.56;10275607;28;20145;-52
2023/01/21 17:00:31;;;;;;;51.47;33.17;;;;;;;6.25;76.43;97306.31;10278494;28;20076;-52
2023/01/21 17:05:35;;;;;;;64.40;43.35;;;;;;;6.24;76.46;97325.19;10272129;28;20117;-51
2023/01/21 17:10:49;;;;;;;73.13;51.17;;;;;;;6.28;77.14;97312.34;10290710;28;20072;-52
2023/01/21 17:15:59;;;;;;;71.55;51.10;;;;;;;6.38;77.46;97305.56;10318166;28;20073;-52
2023/01/21 17:21:13;;;;;;;65.63;47.25;;;;;;;6.40;77.66;97322.75;10287011;28;20934;-52
2023/01/21 17:26:20;;;;;;;76.80;55.47;;;;;;;6.45;77.17;97319.38;10285279;28;20894;-52
2023/01/21 17:31:30;;;;;;;89.10;60.42;;;;;;;6.46;77.50;97328.81;10284267;28;20152;-52
2023/01/21 17:36:35;;;;;;;103.97;62.35;;;;;;;6.35;77.59;97326.13;10287858;28;20755;-52
2023/01/21 17:41:37;;;;;;;59.60;34.80;;;;;;;6.23;77.94;97329.47;10289723;28;20080;-51
2023/01/21 17:46:44;;;;;;;41.38;26.90;;;;;;;5.59;78.26;97269.63;10289934;28;20061;-52
2023/01/21 17:51:44;;;;;;;71.07;43.60;;;;;;;5.74;78.77;97298.06;10288685;28;20049;-52
2023/01/21 17:56:46;;;;;;;64.43;45.88;;;;;;;5.82;79.24;97327.34;10289061;28;20061;-52
2023/01/21 18:01:45;;;;;;;93.45;64.93;;;;;;;5.72;80.36;97339.25;10288155;28;20079;-53
2023/01/21 18:06:44;;;;;;;84.25;56.75;;;;;;;5.64;80.43;97356.31;10289036;28;20113;-53
2023/01/21 18:11:43;;;;;;;83.75;58.10;;;;;;;5.72;81.26;97353.84;10289460;28;20112;-51
2023/01/21 18:16:42;;;;;;;82.45;52.67;;;;;;;5.77;80.75;97347.03;10284184;28;20060;-51
2023/01/21 18:21:42;;;;;;;;;;;;;;;5.81;80.67;97343.63;10289334;28;20076;-52
2023/01/21 18:26:40;;;;;;;54.72;35.92;;;;;;;5.86;81.31;97346.25;10286614;28;20731;-50
2023/01/21 18:31:39;;;;;;;67.25;46.05;;;;;;;5.81;81.64;97353.94;10246446;28;20888;-51
2023/01/21 18:36:39;;;;;;;154.55;87.15;;;;;;;5.77;81.66;97365.06;10260343;28;20025;-51
2023/01/21 18:41:39;;;;;;;86.57;54.95;;;;;;;5.75;82.06;97359.03;10288034;28;20599;-51
2023/01/21 18:46:41;;;;;;;68.15;46.00;;;;;;;5.74;82.05;97365.91;10287711;28;20068;-52
2023/01/21 18:51:39;;;;;;;242.77;155.57;;;;;;;5.58;83.15;97361.41;10286357;28;20069;-52
2023/01/21 18:56:41;;;;;;;51.63;32.55;;;;;;;5.49;83.21;97367.31;10283558;28;20115;-50
2023/01/21 19:01:40;;;;;;;44.47;28.08;;;;;;;5.37;83.32;97356.84;10283244;28;20062;-51
2023/01/21 19:06:39;;;;;;;72.80;41.90;;;;;;;5.34;83.32;97361.94;10286981;28;20830;-51
2023/01/21 19:11:38;;;;;;;41.88;25.27;;;;;;;5.33;83.27;97375.66;10317372;28;20058;-52
2023/01/21 19:16:39;;;;;;;68.20;45.42;;;;;;;5.20;83.77;97366.91;10287102;28;20026;-52
2023/01/21 19:21:38;;;;;;;74.47;50.50;;;;;;;5.19;83.94;97370.31;10288158;28;20065;-51
2023/01/21 19:26:37;;;;;;;87.82;57.40;;;;;;;4.91;84.23;97353.59;10285834;28;20759;-50
2023/01/21 19:31:36;;;;;;;83.15;50.70;;;;;;;5.07;84.10;97373.59;10286905;28;20479;-52
2023/01/21 19:36:35;;;;;;;77.05;50.83;;;;;;;5.05;84.55;97375.28;10285630;28;20030;-52
2023/01/21 19:41:34;;;;;;;93.80;58.25;;;;;;;5.04;84.53;97390.66;10284025;28;20112;-51
2023/01/21 19:46:33;;;;;;;125.78;73.93;;;;;;;5.01;84.96;97393.19;10288821;28;20044;-52
2023/01/21 19:51:32;;;;;;;;;;;;;;;4.99;84.69;97388.03;10294667;28;20084;-51
2023/01/21 19:56:31;;;;;;;93.78;60.78;;;;;;;4.77;85.57;97388.53;10293464;28;19910;-51
2023/01/21 20:01:30;;;;;;;59.22;37.72;;;;;;;4.68;86.04;97397.78;10292781;28;20065;-51
2023/01/21 20:06:40;;;;;;;61.75;40.50;;;;;;;4.65;85.57;97418.31;10294017;28;20107;-52
2023/01/21 20:11:39;;;;;;;64.40;41.25;;;;;;;4.55;85.69;97411.31;10292681;28;20469;-52
2023/01/21 20:16:50;;;;;;;66.18;43.47;;;;;;;4.49;85.73;97413.75;10293155;28;20092;-50
2023/01/21 20:21:49;;;;;;;65.90;42.05;;;;;;;4.45;85.51;97412.81;10291621;28;20497;-50
2023/01/21 20:26:48;;;;;;;83.55;50.40;;;;;;;4.22;85.49;97381.63;10290099;28;20787;-52
2023/01/21 20:31:47;;;;;;;77.53;50.55;;;;;;;4.35;85.71;97423.78;10292339;28;20072;-51
2023/01/21 20:36:48;;;;;;;230.25;110.70;;;;;;;4.26;85.74;97414.19;10290899;28;20116;-50
2023/01/21 20:41:47;;;;;;;266.40;117.00;;;;;;;4.19;86.15;97411.50;10291578;28;20547;-52
2023/01/21 20:46:46;;;;;;;248.57;112.25;;;;;;;4.16;86.13;97416.59;10290354;28;20038;-51
2023/01/21 20:51:45;;;;;;;97.57;53.63;;;;;;;4.14;86.28;97439.66;10292499;28;20072;-52
2023/01/21 20:56:44;;;;;;;88.00;54.00;;;;;;;4.15;86.36;97433.69;10291025;28;20065;-51
2023/01/21 21:01:45;;;;;;;102.40;61.15;;;;;;;4.06;86.49;97428.38;10290317;28;20103;-52
2023/01/21 21:06:44;;;;;;;147.20;81.13;;;;;;;4.01;86.85;97429.97;10289511;28;20085;-52
2023/01/21 21:11:43;;;;;;;148.55;90.65;;;;;;;3.96;86.80;97439.28;10290708;28;20088;-52
2023/01/21 21:16:42;;;;;;;161.52;98.95;;;;;;;3.97;86.55;97443.63;10289907;28;20117;-50
2023/01/21 21:21:41;;;;;;;201.63;112.80;;;;;;;3.93;86.50;97452.94;10289689;28;20030;-50
2023/01/21 21:26:42;;;;;;;213.95;127.22;;;;;;;3.89;86.20;97456.28;10290758;28;20041;-53
2023/01/21 21:31:41;;;;;;;209.90;123.68;;;;;;;3.56;86.19;97426.50;10322020;28;20150;-50
2023/01/21 21:36:41;;;;;;;186.25;111.40;;;;;;;3.68;86.20;97459.25;10288717;28;20030;-51
2023/01/21 21:52:16;;;;;;;153.90;89.18;;;;;;;3.37;85.95;97471.41;10276691;28;20061;-53
2023/01/21 21:57:15;;;;;;;145.13;78.40;;;;;;;3.30;86.43;97461.84;10283884;28;20156;-52
2023/01/21 22:02:14;;;;;;;;;;;;;;;3.21;86.16;97475.34;10288659;28;20076;-50
2023/01/21 22:07:13;;;;;;;133.10;72.57;;;;;;;3.19;86.56;97478.69;10286520;28;19983;-51
2023/01/21 22:12:12;;;;;;;182.57;93.82;;;;;;;3.17;86.47;97477.81;10287550;28;20040;-52
2023/01/21 22:17:11;;;;;;;125.40;68.78;;;;;;;2.89;86.48;97438.69;10285430;28;20497;-53
2023/01/21 22:22:10;;;;;;;125.85;67.55;;;;;;;3.10;86.52;97484.47;10284770;28;20124;-51
2023/01/21 22:27:11;;;;;;;127.75;71.82;;;;;;;2.79;86.26;97455.53;10284870;28;20037;-50
2023/01/21 22:32:10;;;;;;;138.25;77.78;;;;;;;3.02;86.33;97493.66;10283148;28;20473;-52
2023/01/21 22:37:09;;;;;;;152.23;89.10;;;;;;;2.96;86.98;97483.28;10288524;28;20421;-50
2023/01/21 22:42:09;;;;;;;161.15;93.22;;;;;;;2.85;86.90;97493.25;10288360;28;20041;-52
2023/01/21 22:47:08;;;;;;;166.63;97.32;;;;;;;2.74;87.42;97494.69;10284798;28;20742;-50
2023/01/21 22:52:06;;;;;;;168.93;100.80;;;;;;;2.64;87.32;97490.16;10287850;28;20784;-48
2023/01/21 22:57:05;;;;;;;149.25;88.43;;;;;;;2.58;87.90;97491.72;10286978;28;20444;-50
2023/01/21 23:02:05;;;;;;;135.40;81.03;;;;;;;2.55;87.86;97496.75;10286812;28;20045;-51
2023/01/21 23:07:03;;;;;;;;;;;;;;;2.54;87.75;97504.41;10285848;28;20061;-50
2023/01/21 23:12:02;;;;;;;122.93;70.78;;;;;;;2.51;87.66;97505.22;10286581;28;20017;-50
2023/01/21 23:17:01;;;;;;;352.60;159.13;;;;;;;2.47;87.84;97513.63;10283340;28;20077;-50
2023/01/21 23:22:00;;;;;;;111.30;64.20;;;;;;;2.41;88.00;97513.44;10287252;28;20096;-50
2023/01/21 23:26:59;;;;;;;103.78;49.15;;;;;;;2.02;89.38;97497.84;10293062;28;20437;-48
2023/01/21 23:31:58;;;;;;;199.85;47.63;;;;;;;1.98;90.37;97526.75;10290457;28;20053;-50
2023/01/21 23:36:57;;;;;;;127.30;52.70;;;;;;;1.83;90.13;97532.28;10293286;28;20042;-48
2023/01/21 23:41:56;;;;;;;93.18;46.35;;;;;;;1.84;90.50;97534.03;10292208;28;20048;-47